sensor_id;sensor_type;location;lat;lon;timestamp;pressure;altitude;pressure_sealevel;temperature;humidity
12781;BME280;6454;43.304;24.344;2023-02-10T00:00:46;102732.75;;;-8.61;71.66
12781;BME280;6454;43.304;24.344;2023-02-10T00:03:14;102642.38;;;-9.13;71.29
12781;BME280;6454;43.304;24.344;2023-02-10T00:05:41;102727.38;;;-8.59;71.25
12781;BME280;6454;43.304;24.344;2023-02-10T00:08:07;102690.00;;;-8.91;70.55
12781;BME280;6454;43.304;24.344;2023-02-10T00:10:35;102730.97;;;-8.60;70.77
12781;BME280;6454;43.304;24.344;2023-02-10T00:13:02;102734.59;;;-8.75;70.88
12781;BME280;6454;43.304;24.344;2023-02-10T00:15:29;102735.72;;;-8.79;70.92
12781;BME280;6454;43.304;24.344;2023-02-10T00:17:56;102736.84;;;-8.83;71.38
12781;BME280;6454;43.304;24.344;2023-02-10T00:20:24;102741.56;;;-8.88;71.75
12781;BME280;6454;43.304;24.344;2023-02-10T00:22:51;102739.50;;;-8.83;71.38
12781;BME280;6454;43.304;24.344;2023-02-10T00:25:18;102737.97;;;-8.87;71.22
12781;BME280;6454;43.304;24.344;2023-02-10T00:27:45;102734.84;;;-8.92;71.57
12781;BME280;6454;43.304;24.344;2023-02-10T00:30:12;102729.66;;;-8.94;71.33
12781;BME280;6454;43.304;24.344;2023-02-10T00:32:39;102629.72;;;-9.61;71.16
12781;BME280;6454;43.304;24.344;2023-02-10T00:35:07;102723.91;;;-8.86;71.06
12781;BME280;6454;43.304;24.344;2023-02-10T00:37:35;102727.28;;;-8.84;70.64
12781;BME280;6454;43.304;24.344;2023-02-10T00:40:02;102684.03;;;-9.07;70.94
12781;BME280;6454;43.304;24.344;2023-02-10T00:42:29;102723.03;;;-9.13;70.55
12781;BME280;6454;43.304;24.344;2023-02-10T00:44:56;102713.00;;;-9.21;70.97
12781;BME280;6454;43.304;24.344;2023-02-10T00:47:23;102713.84;;;-9.21;70.78
12781;BME280;6454;43.304;24.344;2023-02-10T00:49:51;102725.00;;;-9.17;71.26
12781;BME280;6454;43.304;24.344;2023-02-10T00:52:18;102714.22;;;-9.12;71.41
12781;BME280;6454;43.304;24.344;2023-02-10T00:54:46;102717.47;;;-9.09;70.96
12781;BME280;6454;43.304;24.344;2023-02-10T00:57:13;102721.88;;;-9.09;71.15
12781;BME280;6454;43.304;24.344;2023-02-10T00:59:40;102715.69;;;-9.08;71.26
12781;BME280;6454;43.304;24.344;2023-02-10T01:02:07;102715.03;;;-9.12;70.93
12781;BME280;6454;43.304;24.344;2023-02-10T01:04:34;102720.28;;;-9.12;70.90
12781;BME280;6454;43.304;24.344;2023-02-10T01:07:01;102711.78;;;-9.15;71.70
12781;BME280;6454;43.304;24.344;2023-02-10T01:09:28;102708.00;;;-9.11;71.18
12781;BME280;6454;43.304;24.344;2023-02-10T01:11:56;102706.97;;;-9.09;70.90
12781;BME280;6454;43.304;24.344;2023-02-10T01:14:23;102702.84;;;-9.13;70.96
12781;BME280;6454;43.304;24.344;2023-02-10T01:16:50;102704.72;;;-9.15;70.34
12781;BME280;6454;43.304;24.344;2023-02-10T01:19:17;102699.06;;;-9.09;70.54
12781;BME280;6454;43.304;24.344;2023-02-10T01:21:44;102698.78;;;-9.04;70.44
12781;BME280;6454;43.304;24.344;2023-02-10T01:24:11;102682.81;;;-9.01;69.54
12781;BME280;6454;43.304;24.344;2023-02-10T01:26:38;102678.41;;;-9.01;69.22
12781;BME280;6454;43.304;24.344;2023-02-10T01:29:06;102684.88;;;-9.06;69.62
12781;BME280;6454;43.304;24.344;2023-02-10T01:31:33;102635.41;;;-9.41;69.85
12781;BME280;6454;43.304;24.344;2023-02-10T01:33:59;102671.75;;;-9.06;70.25
12781;BME280;6454;43.304;24.344;2023-02-10T01:36:27;102664.63;;;-9.19;70.02
12781;BME280;6454;43.304;24.344;2023-02-10T01:38:53;102620.00;;;-9.33;70.94
12781;BME280;6454;43.304;24.344;2023-02-10T01:41:21;102617.56;;;-9.36;70.77
12781;BME280;6454;43.304;24.344;2023-02-10T01:44:00;102653.94;;;-9.15;70.52
12781;BME280;6454;43.304;24.344;2023-02-10T01:46:30;102651.50;;;-9.19;70.78
12781;BME280;6454;43.304;24.344;2023-02-10T01:49:00;102646.25;;;-9.19;70.69
12781;BME280;6454;43.304;24.344;2023-02-10T01:51:33;102463.81;;;-10.35;70.74
12781;BME280;6454;43.304;24.344;2023-02-10T01:54:01;102518.44;;;-10.01;70.94
12781;BME280;6454;43.304;24.344;2023-02-10T01:56:28;102452.19;;;-10.45;71.45
12781;BME280;6454;43.304;24.344;2023-02-10T01:58:55;102640.06;;;-9.32;71.03
12781;BME280;6454;43.304;24.344;2023-02-10T02:01:22;102638.47;;;-9.34;70.71
12781;BME280;6454;43.304;24.344;2023-02-10T02:03:51;102642.56;;;-9.43;70.86
12781;BME280;6454;43.304;24.344;2023-02-10T02:06:19;102626.50;;;-9.38;70.92
12781;BME280;6454;43.304;24.344;2023-02-10T02:08:48;102629.31;;;-9.41;70.47
12781;BME280;6454;43.304;24.344;2023-02-10T02:11:20;102636.34;;;-9.42;70.51
12781;BME280;6454;43.304;24.344;2023-02-10T02:14:09;102638.97;;;-9.42;70.60
12781;BME280;6454;43.304;24.344;2023-02-10T02:16:57;102635.53;;;-9.42;70.94
12781;BME280;6454;43.304;24.344;2023-02-10T02:19:55;102632.59;;;-9.38;70.86
12781;BME280;6454;43.304;24.344;2023-02-10T02:22:55;102585.38;;;-9.80;71.07
12781;BME280;6454;43.304;24.344;2023-02-10T02:25:40;102634.47;;;-9.40;70.99
12781;BME280;6454;43.304;24.344;2023-02-10T02:28:23;102624.72;;;-9.38;71.12
12781;BME280;6454;43.304;24.344;2023-02-10T02:31:28;102619.75;;;-9.42;71.51
12781;BME280;6454;43.304;24.344;2023-02-10T02:34:01;102629.75;;;-9.35;71.01
12781;BME280;6454;43.304;24.344;2023-02-10T02:36:31;102499.88;;;-9.98;71.29
12781;BME280;6454;43.304;24.344;2023-02-10T02:39:01;102616.78;;;-9.24;71.21
12781;BME280;6454;43.304;24.344;2023-02-10T02:41:29;102616.34;;;-9.30;70.84
12781;BME280;6454;43.304;24.344;2023-02-10T02:43:57;102610.53;;;-9.35;71.00
12781;BME280;6454;43.304;24.344;2023-02-10T02:46:30;102613.06;;;-9.34;71.40
12781;BME280;6454;43.304;24.344;2023-02-10T02:49:04;102613.25;;;-9.37;71.71
12781;BME280;6454;43.304;24.344;2023-02-10T02:51:42;102599.97;;;-9.48;71.81
12781;BME280;6454;43.304;24.344;2023-02-10T02:54:20;102609.56;;;-9.34;72.41
12781;BME280;6454;43.304;24.344;2023-02-10T02:56:53;102617.38;;;-9.33;72.35
12781;BME280;6454;43.304;24.344;2023-02-10T02:59:28;102614.75;;;-9.33;72.27
12781;BME280;6454;43.304;24.344;2023-02-10T03:02:02;102618.97;;;-9.30;72.20
12781;BME280;6454;43.304;24.344;2023-02-10T03:04:32;102615.69;;;-9.34;72.41
12781;BME280;6454;43.304;24.344;2023-02-10T03:07:00;102615.28;;;-9.28;72.68
12781;BME280;6454;43.304;24.344;2023-02-10T03:09:27;102605.53;;;-9.26;73.15
12781;BME280;6454;43.304;24.344;2023-02-10T03:11:54;102605.97;;;-9.19;72.77
12781;BME280;6454;43.304;24.344;2023-02-10T03:14:21;102601.91;;;-9.10;72.50
12781;BME280;6454;43.304;24.344;2023-02-10T03:16:48;102608.88;;;-8.97;72.12
12781;BME280;6454;43.304;24.344;2023-02-10T03:19:17;102604.25;;;-8.93;71.23
12781;BME280;6454;43.304;24.344;2023-02-10T03:21:44;102601.63;;;-8.93;71.06
12781;BME280;6454;43.304;24.344;2023-02-10T03:24:12;102604.16;;;-8.92;71.55
12781;BME280;6454;43.304;24.344;2023-02-10T03:26:39;102597.97;;;-8.91;71.74
12781;BME280;6454;43.304;24.344;2023-02-10T03:29:06;102598.69;;;-8.89;71.68
12781;BME280;6454;43.304;24.344;2023-02-10T03:31:33;102589.41;;;-8.94;71.55
12781;BME280;6454;43.304;24.344;2023-02-10T03:34:00;102593.22;;;-8.98;71.17
12781;BME280;6454;43.304;24.344;2023-02-10T03:36:28;102593.75;;;-8.93;71.28
12781;BME280;6454;43.304;24.344;2023-02-10T03:38:55;102596.38;;;-8.93;71.23
12781;BME280;6454;43.304;24.344;2023-02-10T03:41:22;102595.53;;;-8.94;71.04
12781;BME280;6454;43.304;24.344;2023-02-10T03:43:49;102589.53;;;-8.96;70.93
12781;BME280;6454;43.304;24.344;2023-02-10T03:46:16;102589.09;;;-9.02;70.54
12781;BME280;6454;43.304;24.344;2023-02-10T03:48:43;102586.00;;;-9.09;70.62
12781;BME280;6454;43.304;24.344;2023-02-10T03:51:10;102585.59;;;-9.15;70.79
12781;BME280;6454;43.304;24.344;2023-02-10T03:53:38;102578.75;;;-9.18;71.21
12781;BME280;6454;43.304;24.344;2023-02-10T03:56:05;102582.00;;;-9.14;70.67
12781;BME280;6454;43.304;24.344;2023-02-10T03:58:32;102586.63;;;-9.18;69.83
12781;BME280;6454;43.304;24.344;2023-02-10T04:00:59;102587.13;;;-9.26;69.87
12781;BME280;6454;43.304;24.344;2023-02-10T04:03:26;102577.72;;;-9.30;70.14
12781;BME280;6454;43.304;24.344;2023-02-10T04:05:53;102593.19;;;-9.38;70.43
12781;BME280;6454;43.304;24.344;2023-02-10T04:08:20;102599.34;;;-9.39;70.92
12781;BME280;6454;43.304;24.344;2023-02-10T04:10:48;102586.41;;;-9.42;69.78
12781;BME280;6454;43.304;24.344;2023-02-10T04:13:15;102603.13;;;-9.43;69.27
12781;BME280;6454;43.304;24.344;2023-02-10T04:15:42;102595.19;;;-9.55;69.09
12781;BME280;6454;43.304;24.344;2023-02-10T04:18:09;102468.22;;;-10.36;69.17
12781;BME280;6454;43.304;24.344;2023-02-10T04:20:35;102602.16;;;-9.68;69.13
12781;BME280;6454;43.304;24.344;2023-02-10T04:23:02;102600.56;;;-9.71;69.03
12781;BME280;6454;43.304;24.344;2023-02-10T04:25:29;102593.44;;;-9.83;69.43
12781;BME280;6454;43.304;24.344;2023-02-10T04:27:57;102607.78;;;-9.89;69.15
12781;BME280;6454;43.304;24.344;2023-02-10T04:30:24;102473.09;;;-10.72;69.47
12781;BME280;6454;43.304;24.344;2023-02-10T04:32:51;102598.72;;;-9.97;69.75
12781;BME280;6454;43.304;24.344;2023-02-10T04:35:17;102588.47;;;-10.02;70.20
12781;BME280;6454;43.304;24.344;2023-02-10T04:37:44;102594.69;;;-10.03;70.09
12781;BME280;6454;43.304;24.344;2023-02-10T04:40:11;102592.34;;;-10.07;70.30
12781;BME280;6454;43.304;24.344;2023-02-10T04:42:38;102589.72;;;-10.07;70.44
12781;BME280;6454;43.304;24.344;2023-02-10T04:45:07;102594.53;;;-10.14;70.77
12781;BME280;6454;43.304;24.344;2023-02-10T04:47:33;102600.22;;;-10.07;70.74
12781;BME280;6454;43.304;24.344;2023-02-10T04:50:00;102603.59;;;-10.05;69.85
12781;BME280;6454;43.304;24.344;2023-02-10T04:52:29;102607.06;;;-10.05;69.80
12781;BME280;6454;43.304;24.344;2023-02-10T04:54:56;102596.94;;;-10.11;69.33
12781;BME280;6454;43.304;24.344;2023-02-10T04:57:23;102594.44;;;-10.12;69.53
12781;BME280;6454;43.304;24.344;2023-02-10T04:59:49;102606.78;;;-10.14;68.93
12781;BME280;6454;43.304;24.344;2023-02-10T05:02:18;102604.75;;;-10.23;68.63
12781;BME280;6454;43.304;24.344;2023-02-10T05:04:44;102599.84;;;-10.29;68.81
12781;BME280;6454;43.304;24.344;2023-02-10T05:07:11;102604.91;;;-10.40;69.19
12781;BME280;6454;43.304;24.344;2023-02-10T05:09:38;102607.53;;;-10.55;68.37
12781;BME280;6454;43.304;24.344;2023-02-10T05:12:05;102604.81;;;-10.53;68.65
12781;BME280;6454;43.304;24.344;2023-02-10T05:14:32;102606.75;;;-10.57;69.26
12781;BME280;6454;43.304;24.344;2023-02-10T05:16:59;102602.34;;;-10.56;69.61
12781;BME280;6454;43.304;24.344;2023-02-10T05:19:27;102606.44;;;-10.66;69.60
12781;BME280;6454;43.304;24.344;2023-02-10T05:21:54;102629.97;;;-10.65;70.37
12781;BME280;6454;43.304;24.344;2023-02-10T05:24:20;102629.78;;;-10.62;70.46
12781;BME280;6454;43.304;24.344;2023-02-10T05:26:47;102621.09;;;-10.62;70.40
12781;BME280;6454;43.304;24.344;2023-02-10T05:29:14;102626.22;;;-10.61;70.25
12781;BME280;6454;43.304;24.344;2023-02-10T05:31:41;102618.25;;;-10.59;70.04
12781;BME280;6454;43.304;24.344;2023-02-10T05:34:08;102621.00;;;-10.61;69.20
12781;BME280;6454;43.304;24.344;2023-02-10T05:36:36;102620.88;;;-10.59;69.22
12781;BME280;6454;43.304;24.344;2023-02-10T05:39:03;102579.66;;;-11.01;68.93
12781;BME280;6454;43.304;24.344;2023-02-10T05:41:47;102627.81;;;-10.72;68.74
12781;BME280;6454;43.304;24.344;2023-02-10T05:44:14;102632.38;;;-10.76;68.91
12781;BME280;6454;43.304;24.344;2023-02-10T05:46:41;102624.50;;;-10.76;68.88
12781;BME280;6454;43.304;24.344;2023-02-10T05:49:08;102628.25;;;-10.80;68.86
12781;BME280;6454;43.304;24.344;2023-02-10T05:51:36;102632.63;;;-10.80;69.91
12781;BME280;6454;43.304;24.344;2023-02-10T05:54:03;102640.22;;;-10.76;70.35
12781;BME280;6454;43.304;24.344;2023-02-10T05:56:30;102639.97;;;-10.71;71.07
12781;BME280;6454;43.304;24.344;2023-02-10T05:58:57;102638.38;;;-10.74;71.47
12781;BME280;6454;43.304;24.344;2023-02-10T06:01:24;102561.88;;;-11.10;71.23
12781;BME280;6454;43.304;24.344;2023-02-10T06:03:51;102638.78;;;-10.52;71.62
12781;BME280;6454;43.304;24.344;2023-02-10T06:06:17;102638.63;;;-10.48;71.64
12781;BME280;6454;43.304;24.344;2023-02-10T06:08:48;102653.63;;;-10.36;72.42
12781;BME280;6454;43.304;24.344;2023-02-10T06:11:15;102652.72;;;-10.35;71.86
12781;BME280;6454;43.304;24.344;2023-02-10T06:13:41;102654.59;;;-10.23;71.46
12781;BME280;6454;43.304;24.344;2023-02-10T06:16:08;102658.78;;;-10.07;71.34
12781;BME280;6454;43.304;24.344;2023-02-10T06:18:36;102665.19;;;-9.97;70.97
12781;BME280;6454;43.304;24.344;2023-02-10T06:21:03;102664.53;;;-9.86;71.44
12781;BME280;6454;43.304;24.344;2023-02-10T06:23:30;102670.91;;;-9.76;71.53
12781;BME280;6454;43.304;24.344;2023-02-10T06:25:58;102675.59;;;-9.67;72.41
12781;BME280;6454;43.304;24.344;2023-02-10T06:28:26;102673.25;;;-9.57;72.51
12781;BME280;6454;43.304;24.344;2023-02-10T06:30:53;102674.81;;;-9.41;72.70
12781;BME280;6454;43.304;24.344;2023-02-10T06:33:20;102678.38;;;-9.28;72.73
12781;BME280;6454;43.304;24.344;2023-02-10T06:35:47;102669.72;;;-9.15;72.73
12781;BME280;6454;43.304;24.344;2023-02-10T06:38:14;102683.66;;;-9.01;72.64
12781;BME280;6454;43.304;24.344;2023-02-10T06:40:41;102694.41;;;-8.91;73.00
12781;BME280;6454;43.304;24.344;2023-02-10T06:43:09;102685.00;;;-8.81;72.80
12781;BME280;6454;43.304;24.344;2023-02-10T06:45:36;102680.63;;;-8.68;72.59
12781;BME280;6454;43.304;24.344;2023-02-10T06:48:04;102689.50;;;-8.57;72.18
12781;BME280;6454;43.304;24.344;2023-02-10T06:50:30;102683.41;;;-8.44;72.23
12781;BME280;6454;43.304;24.344;2023-02-10T06:52:57;102680.25;;;-8.37;72.41
12781;BME280;6454;43.304;24.344;2023-02-10T06:55:24;102679.41;;;-8.25;72.43
12781;BME280;6454;43.304;24.344;2023-02-10T06:57:51;102683.34;;;-8.18;72.85
12781;BME280;6454;43.304;24.344;2023-02-10T07:00:19;102677.31;;;-8.07;72.78
12781;BME280;6454;43.304;24.344;2023-02-10T07:02:46;102672.50;;;-8.01;72.86
12781;BME280;6454;43.304;24.344;2023-02-10T07:05:13;102662.56;;;-7.85;73.24
12781;BME280;6454;43.304;24.344;2023-02-10T07:07:40;102664.88;;;-7.67;72.96
12781;BME280;6454;43.304;24.344;2023-02-10T07:10:07;102660.63;;;-7.57;72.55
12781;BME280;6454;43.304;24.344;2023-02-10T07:12:34;102661.69;;;-7.47;72.71
12781;BME280;6454;43.304;24.344;2023-02-10T07:15:01;102661.78;;;-7.36;72.95
12781;BME280;6454;43.304;24.344;2023-02-10T07:17:29;102663.66;;;-7.26;73.06
12781;BME280;6454;43.304;24.344;2023-02-10T07:19:56;102668.25;;;-7.16;72.72
12781;BME280;6454;43.304;24.344;2023-02-10T07:22:23;102643.38;;;-7.25;72.92
12781;BME280;6454;43.304;24.344;2023-02-10T07:24:50;102670.84;;;-7.04;73.65
12781;BME280;6454;43.304;24.344;2023-02-10T07:27:16;102679.66;;;-6.92;73.58
12781;BME280;6454;43.304;24.344;2023-02-10T07:29:43;102679.94;;;-6.84;73.14
12781;BME280;6454;43.304;24.344;2023-02-10T07:32:10;102675.53;;;-6.73;73.06
12781;BME280;6454;43.304;24.344;2023-02-10T07:34:38;102681.09;;;-6.65;73.64
12781;BME280;6454;43.304;24.344;2023-02-10T07:37:06;102678.41;;;-6.52;73.41
12781;BME280;6454;43.304;24.344;2023-02-10T07:39:33;102681.69;;;-6.37;73.48
12781;BME280;6454;43.304;24.344;2023-02-10T07:41:59;102684.84;;;-6.32;73.25
12781;BME280;6454;43.304;24.344;2023-02-10T07:44:26;102678.59;;;-6.31;73.22
12781;BME280;6454;43.304;24.344;2023-02-10T07:46:53;102678.63;;;-6.20;73.44
12781;BME280;6454;43.304;24.344;2023-02-10T07:49:20;102681.31;;;-6.09;73.03
12781;BME280;6454;43.304;24.344;2023-02-10T07:51:48;102680.00;;;-6.04;73.06
12781;BME280;6454;43.304;24.344;2023-02-10T07:54:15;102534.72;;;-6.72;72.53
12781;BME280;6454;43.304;24.344;2023-02-10T07:56:42;102671.94;;;-5.80;73.48
12781;BME280;6454;43.304;24.344;2023-02-10T07:59:08;102674.13;;;-5.74;73.35
12781;BME280;6454;43.304;24.344;2023-02-10T08:01:35;102479.25;;;-6.83;73.07
12781;BME280;6454;43.304;24.344;2023-02-10T08:04:07;102679.88;;;-5.58;73.11
12781;BME280;6454;43.304;24.344;2023-02-10T08:06:34;102676.75;;;-5.52;73.11
12781;BME280;6454;43.304;24.344;2023-02-10T08:09:02;102677.47;;;-5.39;72.66
12781;BME280;6454;43.304;24.344;2023-02-10T08:11:29;102673.63;;;-5.35;72.46
12781;BME280;6454;43.304;24.344;2023-02-10T08:13:56;102669.03;;;-5.22;73.09
12781;BME280;6454;43.304;24.344;2023-02-10T08:16:23;102667.81;;;-5.17;73.20
12781;BME280;6454;43.304;24.344;2023-02-10T08:18:50;102672.13;;;-5.05;73.09
12781;BME280;6454;43.304;24.344;2023-02-10T08:21:17;102669.84;;;-4.99;72.59
12781;BME280;6454;43.304;24.344;2023-02-10T08:23:43;102667.53;;;-4.92;72.39
12781;BME280;6454;43.304;24.344;2023-02-10T08:26:12;102669.31;;;-4.82;72.80
12781;BME280;6454;43.304;24.344;2023-02-10T08:28:40;102671.78;;;-4.69;73.03
12781;BME280;6454;43.304;24.344;2023-02-10T08:31:08;102676.91;;;-4.57;72.57
12781;BME280;6454;43.304;24.344;2023-02-10T08:33:35;102652.19;;;-4.78;73.10
12781;BME280;6454;43.304;24.344;2023-02-10T08:36:04;102680.84;;;-4.51;73.08
12781;BME280;6454;43.304;24.344;2023-02-10T08:38:31;102451.97;;;-5.83;72.90
12781;BME280;6454;43.304;24.344;2023-02-10T08:40:58;102657.53;;;-4.57;72.33
12781;BME280;6454;43.304;24.344;2023-02-10T08:43:27;102676.28;;;-4.28;72.06
12781;BME280;6454;43.304;24.344;2023-02-10T08:45:55;102673.84;;;-4.20;72.02
12781;BME280;6454;43.304;24.344;2023-02-10T08:48:22;102659.84;;;-4.43;72.17
12781;BME280;6454;43.304;24.344;2023-02-10T08:50:53;102668.34;;;-4.08;72.58
12781;BME280;6454;43.304;24.344;2023-02-10T08:53:20;102666.72;;;-3.99;72.06
12781;BME280;6454;43.304;24.344;2023-02-10T08:55:55;102595.19;;;-4.40;72.41
12781;BME280;6454;43.304;24.344;2023-02-10T08:58:21;102665.03;;;-3.79;71.55
12781;BME280;6454;43.304;24.344;2023-02-10T09:00:50;102662.41;;;-3.70;71.51
12781;BME280;6454;43.304;24.344;2023-02-10T09:03:17;102661.81;;;-3.73;72.04
12781;BME280;6454;43.304;24.344;2023-02-10T09:05:44;102664.66;;;-3.65;72.28
12781;BME280;6454;43.304;24.344;2023-02-10T09:08:11;102637.91;;;-3.53;71.76
12781;BME280;6454;43.304;24.344;2023-02-10T09:10:38;102520.13;;;-4.20;71.62
12781;BME280;6454;43.304;24.344;2023-02-10T09:13:06;102646.22;;;-3.37;71.35
12781;BME280;6454;43.304;24.344;2023-02-10T09:15:35;102633.94;;;-3.28;72.30
12781;BME280;6454;43.304;24.344;2023-02-10T09:18:04;102628.09;;;-3.22;72.29
12781;BME280;6454;43.304;24.344;2023-02-10T09:20:31;102634.66;;;-3.16;71.90
12781;BME280;6454;43.304;24.344;2023-02-10T09:22:58;102601.53;;;-3.32;71.88
12781;BME280;6454;43.304;24.344;2023-02-10T09:25:25;102627.00;;;-2.91;71.24
12781;BME280;6454;43.304;24.344;2023-02-10T09:27:52;102625.34;;;-2.92;70.50
12781;BME280;6454;43.304;24.344;2023-02-10T09:30:22;102624.09;;;-2.88;70.77
12781;BME280;6454;43.304;24.344;2023-02-10T09:32:49;102620.31;;;-2.76;70.77
12781;BME280;6454;43.304;24.344;2023-02-10T09:35:17;102628.84;;;-2.63;70.90
12781;BME280;6454;43.304;24.344;2023-02-10T09:37:44;102631.22;;;-2.59;70.16
12781;BME280;6454;43.304;24.344;2023-02-10T09:40:16;102631.34;;;-2.51;69.51
12781;BME280;6454;43.304;24.344;2023-02-10T09:42:56;102628.41;;;-2.39;69.46
12781;BME280;6454;43.304;24.344;2023-02-10T09:45:32;102622.13;;;-2.38;68.96
12781;BME280;6454;43.304;24.344;2023-02-10T09:48:07;102621.53;;;-2.32;69.01
12781;BME280;6454;43.304;24.344;2023-02-10T09:50:51;102619.56;;;-2.20;68.90
12781;BME280;6454;43.304;24.344;2023-02-10T09:53:24;102490.88;;;-2.93;68.81
12781;BME280;6454;43.304;24.344;2023-02-10T09:55:55;102604.72;;;-2.13;68.39
12781;BME280;6454;43.304;24.344;2023-02-10T09:58:28;102581.53;;;-2.30;67.87
12781;BME280;6454;43.304;24.344;2023-02-10T10:01:01;102451.84;;;-2.83;68.86
12781;BME280;6454;43.304;24.344;2023-02-10T10:03:37;102605.44;;;-1.84;67.56
12781;BME280;6454;43.304;24.344;2023-02-10T10:06:14;102583.88;;;-1.81;66.81
12781;BME280;6454;43.304;24.344;2023-02-10T10:08:50;102576.53;;;-1.69;67.41
12781;BME280;6454;43.304;24.344;2023-02-10T10:11:25;102578.66;;;-1.73;67.87
12781;BME280;6454;43.304;24.344;2023-02-10T10:13:53;102573.59;;;-1.66;67.66
12781;BME280;6454;43.304;24.344;2023-02-10T10:16:45;102576.19;;;-1.57;66.80
12781;BME280;6454;43.304;24.344;2023-02-10T10:19:20;102577.94;;;-1.65;68.25
12781;BME280;6454;43.304;24.344;2023-02-10T10:22:02;102578.84;;;-1.57;66.89
12781;BME280;6454;43.304;24.344;2023-02-10T10:24:48;102582.00;;;-1.44;66.12
12781;BME280;6454;43.304;24.344;2023-02-10T10:27:24;102553.41;;;-1.42;66.28
12781;BME280;6454;43.304;24.344;2023-02-10T10:29:55;102567.56;;;-1.41;65.55
12781;BME280;6454;43.304;24.344;2023-02-10T10:32:35;102554.25;;;-1.41;65.12
12781;BME280;6454;43.304;24.344;2023-02-10T10:35:10;102555.88;;;-1.31;66.54
12781;BME280;6454;43.304;24.344;2023-02-10T10:37:40;102273.50;;;-2.88;65.47
12781;BME280;6454;43.304;24.344;2023-02-10T10:40:08;102551.03;;;-1.17;66.17
12781;BME280;6454;43.304;24.344;2023-02-10T10:42:42;102555.72;;;-1.11;65.10
12781;BME280;6454;43.304;24.344;2023-02-10T10:45:16;102549.94;;;-1.07;64.25
12781;BME280;6454;43.304;24.344;2023-02-10T10:47:46;102540.22;;;-0.98;64.54
12781;BME280;6454;43.304;24.344;2023-02-10T10:50:19;102542.78;;;-0.89;63.74
12781;BME280;6454;43.304;24.344;2023-02-10T10:52:50;102544.47;;;-0.88;63.31
12781;BME280;6454;43.304;24.344;2023-02-10T10:55:21;102539.94;;;-0.87;63.47
12781;BME280;6454;43.304;24.344;2023-02-10T10:57:50;102536.00;;;-0.83;63.15
12781;BME280;6454;43.304;24.344;2023-02-10T11:00:20;102536.28;;;-0.69;61.96
12781;BME280;6454;43.304;24.344;2023-02-10T11:02:56;102470.19;;;-1.08;63.06
12781;BME280;6454;43.304;24.344;2023-02-10T11:05:28;102453.47;;;-1.18;64.32
12781;BME280;6454;43.304;24.344;2023-02-10T11:07:58;102529.59;;;-0.47;64.05
12781;BME280;6454;43.304;24.344;2023-02-10T11:10:28;102526.16;;;-0.39;63.17
12781;BME280;6454;43.304;24.344;2023-02-10T11:12:58;102524.34;;;-0.39;62.20
12781;BME280;6454;43.304;24.344;2023-02-10T11:15:36;102523.50;;;-0.39;62.26
12781;BME280;6454;43.304;24.344;2023-02-10T11:18:06;102521.66;;;-0.39;62.25
12781;BME280;6454;43.304;24.344;2023-02-10T11:20:35;102526.63;;;-0.44;62.63
12781;BME280;6454;43.304;24.344;2023-02-10T11:23:12;102497.59;;;-0.55;63.32
12781;BME280;6454;43.304;24.344;2023-02-10T11:25:40;102510.31;;;-0.41;63.54
12781;BME280;6454;43.304;24.344;2023-02-10T11:28:16;102508.16;;;-0.37;62.72
12781;BME280;6454;43.304;24.344;2023-02-10T11:30:46;102493.41;;;-0.24;63.55
12781;BME280;6454;43.304;24.344;2023-02-10T11:33:19;102467.56;;;-0.57;64.31
12781;BME280;6454;43.304;24.344;2023-02-10T11:35:47;102493.13;;;-0.21;64.18
12781;BME280;6454;43.304;24.344;2023-02-10T11:38:19;102489.44;;;-0.20;63.40
12781;BME280;6454;43.304;24.344;2023-02-10T11:40:51;102459.06;;;-0.60;64.54
12781;BME280;6454;43.304;24.344;2023-02-10T11:43:18;102480.75;;;-0.22;63.16
12781;BME280;6454;43.304;24.344;2023-02-10T11:45:52;102334.94;;;-1.22;63.88
12781;BME280;6454;43.304;24.344;2023-02-10T11:48:21;102475.59;;;-0.23;64.45
12781;BME280;6454;43.304;24.344;2023-02-10T11:51:00;102474.56;;;-0.22;63.97
12781;BME280;6454;43.304;24.344;2023-02-10T11:53:31;102352.03;;;-0.99;63.08
12781;BME280;6454;43.304;24.344;2023-02-10T11:56:01;102462.56;;;-0.26;64.24
12781;BME280;6454;43.304;24.344;2023-02-10T11:58:42;102460.25;;;-0.21;64.58
12781;BME280;6454;43.304;24.344;2023-02-10T12:01:45;102466.44;;;-0.21;63.96
12781;BME280;6454;43.304;24.344;2023-02-10T12:04:25;102457.75;;;-0.23;64.40
12781;BME280;6454;43.304;24.344;2023-02-10T12:07:02;102424.66;;;-0.46;63.76
12781;BME280;6454;43.304;24.344;2023-02-10T12:09:41;102450.13;;;-0.10;63.24
12781;BME280;6454;43.304;24.344;2023-02-10T12:12:15;102346.88;;;-0.67;63.62
12781;BME280;6454;43.304;24.344;2023-02-10T12:14:53;102448.31;;;-0.09;61.72
12781;BME280;6454;43.304;24.344;2023-02-10T12:17:27;102450.00;;;-0.08;62.58
12781;BME280;6454;43.304;24.344;2023-02-10T12:22:58;102452.44;;;-0.15;62.54
12781;BME280;6454;43.304;24.344;2023-02-10T12:25:34;102431.97;;;-0.06;62.63
12781;BME280;6454;43.304;24.344;2023-02-10T12:28:10;102433.13;;;-0.09;61.38
12781;BME280;6454;43.304;24.344;2023-02-10T12:30:47;102367.28;;;-0.58;61.80
12781;BME280;6454;43.304;24.344;2023-02-10T12:33:30;102443.81;;;-0.09;61.35
12781;BME280;6454;43.304;24.344;2023-02-10T12:36:06;102439.00;;;-0.05;61.88
12781;BME280;6454;43.304;24.344;2023-02-10T12:38:44;102432.13;;;-0.16;61.74
12781;BME280;6454;43.304;24.344;2023-02-10T12:41:23;102418.81;;;-0.08;61.64
12781;BME280;6454;43.304;24.344;2023-02-10T12:44:08;102416.50;;;-0.03;62.24
12781;BME280;6454;43.304;24.344;2023-02-10T12:46:43;102426.19;;;0.07;62.16
12781;BME280;6454;43.304;24.344;2023-02-10T12:49:24;102425.53;;;0.13;61.70
12781;BME280;6454;43.304;24.344;2023-02-10T12:52:07;102416.50;;;0.06;62.08
12781;BME280;6454;43.304;24.344;2023-02-10T12:54:43;102373.78;;;-0.11;62.49
12781;BME280;6454;43.304;24.344;2023-02-10T12:57:17;102412.84;;;0.07;62.58
12781;BME280;6454;43.304;24.344;2023-02-10T12:59:51;102416.19;;;0.09;63.32
12781;BME280;6454;43.304;24.344;2023-02-10T13:02:23;102382.78;;;-0.04;62.71
12781;BME280;6454;43.304;24.344;2023-02-10T13:04:54;102409.19;;;0.16;63.51